Westford, VT (05494)

3:10 PM EST op 19 december 2014 (GMT -0500)
King Hill | Change Station
CLOSE
Current Station
Persoonlijk weerstation
Location: Westford, VT
Geometrische hoogte: 850 ft
Nabije weerstations

Hoogte 850 ft 44.63 °N, 73.04 °W | Updated 4 minutes ago

Geheel bewolkt
Geheel bewolkt
20.7 °F
Voelt als 21 °F
N
0.0
Wind Variabel Wind van NNO
Gusts 7.0 mijl/u

Vandaag
Hoog -- | Laag -- °F
--% Kans op neerslag
Gisteren
Hoog -- | Laag -- °F
Precip. -- inches
7:24 AM 4:13 PM
Afnemende halvemaan, 6% visible
Druk 30.12 inches
Zicht 10.0 mijlen
Wolken Geheel bewolkt 1800 ft
Gevoelstemperatuur 21 °F
Dauwpunt 18 °F
Vochtigheid 91%
Neerslag 0.00 inches
Dikte sneeuw Niet beschikbaar.
UV 0 van de 12
Pollen .10 van de 12
Luchtkwaliteit Niet beschikbaar.
Flu Activity Niet beschikbaar.
METAR KBTV 191954Z 03008KT 10SM OVC018 M04/M08 A3010 RMK AO2 SLP197 T10391083

More Conditions Fewer Conditions

Druk 30.12 inches
Zicht 10.0 mijlen
Wolken Geheel bewolkt 1800 ft
Gevoelstemperatuur 21 °F
Dauwpunt 18 °F
Vochtigheid 91%
Neerslag 0.00 inches
Dikte sneeuw Niet beschikbaar.
UV 0 van de 12
Pollen .10 van de 12
Luchtkwaliteit Niet beschikbaar.
Flu Activity Niet beschikbaar.
METAR KBTV 191954Z 03008KT 10SM OVC018 M04/M08 A3010 RMK AO2 SLP197 T10391083

More Conditions Fewer Conditions

10-Day Weather Forecast

Almanac

Astronomie

Dec. 19, 2014 Opkomst Ondergang
Werkelijke tijd
Burgerlijke schemering
Nautische schemering
Astronomische schemering
Maan
Golflengte van het zichtbare licht
Daglengte
Tomorrow will be .
, % of the Moon is Illuminated

Extremen vandaag

State Highs State Lows

Community

WunderPhotos

Upload Photos

1,779,048 foto’s ge-upload!

WunderBlogs® & News

Nearby

Luchtkwaliteit

  Luchtkwaliteit LK-index Verontreinigende stof
Not available.

Dikte sneeuw

Station Depth Geometrische hoogte

Aardbevingen

Stad Distance Mag. Time & Date
Minimum magnitude displayed is 2.5.

Watertemperatuur langs de kust

Plaats Temperatuur

Nabije weerstations